Time;durP1;ratioP1;P1;durP2;ratioP2;P2;SDS_P1;SDS_P2;PMS_P1;PMS_P2;Temp;Humidity;BMP_temperature;BMP_pressure;BME280_temperature;BME280_humidity;BME280_pressure;Samples;Min_cycle;Max_cycle;Signal;HPM_P1;HPM_P2
2021/03/29 00:00:14;;;;;;;17.25;7.53;;;10.70;99.90;;;;;;5094188;28;20042;-70
2021/03/29 00:02:40;;;;;;;21.58;6.90;;;10.70;99.90;;;;;;5093647;28;20465;-70
2021/03/29 00:05:07;;;;;;;17.55;7.63;;;10.60;99.90;;;;;;5094164;28;20095;-70
2021/03/29 00:07:34;;;;;;;16.80;7.38;;;10.70;99.90;;;;;;5093858;28;20541;-70
2021/03/29 00:10:03;;;;;;;20.08;7.20;;;10.60;99.90;;;;;;5093442;28;20606;-71
2021/03/29 00:12:29;;;;;;;23.48;7.40;;;10.50;99.90;;;;;;5092718;28;20043;-71
2021/03/29 00:14:55;;;;;;;20.17;7.15;;;10.40;99.90;;;;;;5094078;28;20028;-70
2021/03/29 00:17:21;;;;;;;17.60;6.18;;;10.40;99.90;;;;;;5092919;28;20031;-70
2021/03/29 00:19:47;;;;;;;22.10;6.55;;;10.40;99.90;;;;;;5093734;28;20384;-70
2021/03/29 00:22:13;;;;;;;16.92;6.03;;;10.40;99.90;;;;;;5093723;28;20118;-70
2021/03/29 00:24:39;;;;;;;17.92;5.68;;;10.50;99.90;;;;;;5093985;28;20496;-70
2021/03/29 00:27:06;;;;;;;14.73;5.95;;;10.50;99.90;;;;;;5093715;28;20025;-70
2021/03/29 00:29:31;;;;;;;20.83;6.35;;;10.40;99.90;;;;;;5093385;28;20032;-70
2021/03/29 00:31:58;;;;;;;17.85;6.10;;;10.40;99.90;;;;;;5093956;28;20027;-70
2021/03/29 00:34:24;;;;;;;16.70;5.97;;;10.40;99.90;;;;;;5093938;28;20030;-70
2021/03/29 00:36:52;;;;;;;20.52;6.15;;;10.40;99.90;;;;;;5093881;28;20024;-70
2021/03/29 00:39:18;;;;;;;20.85;6.53;;;10.30;99.90;;;;;;5092044;28;20032;-70
2021/03/29 00:41:44;;;;;;;16.30;5.85;;;10.30;99.90;;;;;;5093858;28;20522;-70
2021/03/29 00:44:10;;;;;;;20.95;5.85;;;10.30;99.90;;;;;;5093847;28;20016;-70
2021/03/29 00:46:40;;;;;;;16.83;6.15;;;10.40;99.90;;;;;;5093523;28;20419;-70
2021/03/29 00:49:06;;;;;;;13.30;5.25;;;10.40;99.90;;;;;;5093427;28;20077;-70
2021/03/29 00:51:35;;;;;;;14.77;5.82;;;10.30;99.90;;;;;;5093781;28;20054;-70
2021/03/29 00:54:04;;;;;;;17.98;5.47;;;10.30;99.90;;;;;;5093221;28;20020;-70
2021/03/29 00:56:33;;;;;;;15.95;5.63;;;10.20;99.90;;;;;;5097305;28;20012;-70
2021/03/29 00:59:00;;;;;;;18.25;5.53;;;10.20;99.90;;;;;;5097495;28;20024;-70
2021/03/29 01:01:38;;;;;;;22.40;6.15;;;10.20;99.90;;;;;;5097422;28;20020;-70
2021/03/29 01:04:06;;;;;;;19.13;5.25;;;10.10;99.90;;;;;;5097389;28;20024;-70
2021/03/29 01:06:36;;;;;;;17.13;4.70;;;10.20;99.90;;;;;;5097305;28;20481;-70
2021/03/29 01:09:07;;;;;;;20.65;5.25;;;10.20;99.90;;;;;;5096601;28;20424;-70
2021/03/29 01:11:36;;;;;;;20.50;6.15;;;10.20;99.90;;;;;;5097161;28;20034;-70
2021/03/29 01:14:15;;;;;;;13.95;4.90;;;10.30;99.90;;;;;;5096848;28;20046;-70
2021/03/29 01:16:47;;;;;;;17.33;4.90;;;10.20;99.90;;;;;;5095940;28;20023;-70
2021/03/29 01:19:19;;;;;;;16.25;5.30;;;10.20;99.90;;;;;;5096752;28;20034;-70
2021/03/29 01:21:54;;;;;;;23.58;6.00;;;10.20;99.90;;;;;;5095203;28;20119;-70
2021/03/29 01:24:47;;;;;;;19.52;5.25;;;10.10;99.90;;;;;;5096979;28;20127;-70
2021/03/29 01:27:16;;;;;;;13.98;5.50;;;10.10;99.90;;;;;;5096688;28;20035;-70
2021/03/29 01:29:43;;;;;;;15.50;4.90;;;10.00;99.90;;;;;;5096531;28;20032;-70
2021/03/29 01:32:10;;;;;;;18.67;5.22;;;9.90;99.90;;;;;;5096559;28;20091;-70
2021/03/29 01:34:38;;;;;;;13.30;4.47;;;9.90;99.90;;;;;;5096823;28;20035;-70
2021/03/29 01:37:05;;;;;;;19.52;6.28;;;10.00;99.90;;;;;;5096456;28;20020;-70
2021/03/29 01:39:32;;;;;;;18.33;4.82;;;10.10;99.90;;;;;;5095249;28;20020;-70
2021/03/29 01:41:58;;;;;;;18.52;4.85;;;10.10;99.90;;;;;;5096657;28;20038;-70
2021/03/29 01:44:25;;;;;;;12.68;4.95;;;10.10;99.90;;;;;;5096625;28;20465;-70
2021/03/29 01:46:51;;;;;;;17.25;5.65;;;10.10;99.90;;;;;;5096263;28;20377;-70
2021/03/29 01:49:18;;;;;;;15.30;4.60;;;10.10;99.90;;;;;;5096189;28;20023;-70
2021/03/29 01:51:45;;;;;;;15.25;5.00;;;10.10;99.90;;;;;;5096451;28;20012;-70
2021/03/29 01:54:12;;;;;;;18.20;5.07;;;10.00;99.90;;;;;;5096154;28;20020;-70
2021/03/29 01:56:38;;;;;;;11.23;4.68;;;10.00;99.90;;;;;;5096365;28;20069;-70
2021/03/29 01:59:04;;;;;;;16.13;4.65;;;10.10;99.90;;;;;;5094497;28;20028;-70
2021/03/29 02:01:30;;;;;;;18.02;5.38;;;10.10;99.90;;;;;;5095999;28;20103;-70
2021/03/29 02:03:56;;;;;;;19.70;5.90;;;10.20;99.90;;;;;;5095974;28;20023;-70
2021/03/29 02:06:22;;;;;;;15.23;5.10;;;10.20;99.90;;;;;;5095742;28;20028;-70
2021/03/29 02:08:49;;;;;;;16.83;4.85;;;10.20;99.90;;;;;;5095614;28;20055;-70
2021/03/29 02:11:15;;;;;;;15.02;5.32;;;10.20;99.90;;;;;;5095518;28;20422;-69
2021/03/29 02:13:43;;;;;;;14.70;4.95;;;10.10;99.90;;;;;;5096011;28;20107;-70
2021/03/29 02:16:12;;;;;;;18.42;5.85;;;10.10;99.90;;;;;;5095691;28;20100;-70
2021/03/29 02:18:41;;;;;;;21.13;6.35;;;10.10;99.90;;;;;;5095928;28;20468;-70
2021/03/29 02:21:10;;;;;;;16.35;5.95;;;10.20;99.90;;;;;;5095900;28;20484;-70
2021/03/29 02:23:37;;;;;;;14.50;5.35;;;10.30;99.90;;;;;;5095821;28;20024;-70
2021/03/29 02:26:05;;;;;;;15.27;5.78;;;10.20;99.90;;;;;;5094361;28;20024;-69
2021/03/29 02:28:31;;;;;;;19.55;5.95;;;10.10;99.90;;;;;;5093852;28;20028;-69
2021/03/29 02:31:00;;;;;;;15.23;5.72;;;10.00;99.90;;;;;;5095453;28;20020;-70
2021/03/29 02:33:26;;;;;;;17.20;5.22;;;10.00;99.90;;;;;;5095148;28;20488;-70
2021/03/29 02:35:53;;;;;;;15.43;5.90;;;9.90;99.90;;;;;;5095590;28;20024;-70
2021/03/29 02:38:19;;;;;;;16.77;5.22;;;10.00;99.90;;;;;;5093744;28;20062;-70
2021/03/29 02:40:48;;;;;;;18.13;6.22;;;10.00;99.90;;;;;;5095482;28;20067;-70
2021/03/29 02:43:14;;;;;;;16.23;5.30;;;10.10;99.90;;;;;;5095447;28;20088;-69
2021/03/29 02:45:49;;;;;;;17.58;5.32;;;10.10;99.90;;;;;;5095097;28;20376;-70
2021/03/29 02:48:18;;;;;;;14.55;5.68;;;10.10;99.90;;;;;;5095287;28;20016;-69
2021/03/29 02:50:47;;;;;;;19.23;5.65;;;10.10;99.90;;;;;;5095326;28;20510;-70
2021/03/29 02:53:18;;;;;;;13.55;5.28;;;10.20;99.90;;;;;;5095288;28;20032;-69
2021/03/29 02:55:45;;;;;;;13.30;4.35;;;10.10;99.90;;;;;;5094642;28;20354;-70
2021/03/29 02:58:13;;;;;;;14.07;4.97;;;10.10;99.90;;;;;;5095132;28;20107;-70
2021/03/29 03:00:39;;;;;;;16.20;4.80;;;10.10;99.90;;;;;;5095124;28;20127;-70
2021/03/29 03:03:06;;;;;;;14.25;5.15;;;10.00;99.90;;;;;;5093231;28;20495;-70
2021/03/29 03:05:34;;;;;;;13.68;5.38;;;10.10;99.90;;;;;;5095034;28;20059;-70
2021/03/29 03:08:01;;;;;;;16.25;5.03;;;10.20;99.90;;;;;;5093495;28;20063;-69
2021/03/29 03:10:28;;;;;;;15.13;5.60;;;10.20;99.90;;;;;;5094914;28;20020;-69
2021/03/29 03:12:56;;;;;;;16.05;5.30;;;10.00;99.90;;;;;;5094932;28;20106;-70
2021/03/29 03:15:24;;;;;;;18.92;5.47;;;9.90;99.90;;;;;;5094285;28;20097;-70
2021/03/29 03:17:51;;;;;;;18.08;5.65;;;10.00;99.90;;;;;;5094308;28;20406;-69
2021/03/29 03:20:17;;;;;;;19.15;5.70;;;10.00;99.90;;;;;;5094778;28;20047;-69
2021/03/29 03:25:36;;;;;;;17.35;5.50;;;10.00;99.90;;;;;;5173864;27;20395;-69
2021/03/29 03:28:05;;;;;;;19.35;5.70;;;10.00;99.90;;;;;;5173899;27;20034;-68
2021/03/29 03:30:33;;;;;;;14.10;5.35;;;10.10;99.90;;;;;;5173322;27;20071;-68
2021/03/29 03:33:00;;;;;;;16.52;5.40;;;10.00;99.90;;;;;;5173815;27;20471;-70
2021/03/29 03:35:27;;;;;;;14.98;4.80;;;9.90;99.90;;;;;;5173482;27;20022;-70
2021/03/29 03:37:58;;;;;;;16.08;5.72;;;9.80;99.90;;;;;;5173460;27;20110;-69
2021/03/29 03:40:24;;;;;;;14.55;5.95;;;9.80;99.90;;;;;;5173664;27;20037;-70
2021/03/29 03:42:53;;;;;;;13.93;5.38;;;9.80;99.90;;;;;;5173088;27;20489;-70
2021/03/29 03:45:22;;;;;;;21.17;5.30;;;9.70;99.90;;;;;;5173565;27;20022;-69
2021/03/29 03:47:48;;;;;;;16.75;5.07;;;9.80;99.90;;;;;;5173514;27;20029;-69
2021/03/29 03:50:14;;;;;;;16.20;5.50;;;9.80;99.90;;;;;;5171672;27;20152;-70
2021/03/29 03:52:41;;;;;;;13.50;5.20;;;9.80;99.90;;;;;;5173439;27;20022;-69
2021/03/29 03:55:09;;;;;;;15.63;5.32;;;9.80;99.90;;;;;;5173418;27;20475;-70
2021/03/29 03:57:37;;;;;;;14.45;4.47;;;9.80;99.90;;;;;;5172211;27;20051;-69
2021/03/29 04:00:08;;;;;;;12.65;4.60;;;9.80;99.90;;;;;;5173026;27;20033;-69
2021/03/29 04:02:35;;;;;;;13.85;4.82;;;9.80;99.90;;;;;;5173282;27;20021;-69
2021/03/29 04:05:02;;;;;;;11.05;4.38;;;9.80;99.90;;;;;;5173156;27;20015;-70
2021/03/29 04:07:27;;;;;;;20.45;5.20;;;9.80;99.90;;;;;;5171434;27;20022;-70
2021/03/29 04:09:57;;;;;;;17.75;4.90;;;9.80;99.90;;;;;;5172870;27;20022;-70
2021/03/29 04:12:23;;;;;;;11.85;4.43;;;9.70;99.90;;;;;;5172502;27;20113;-69
2021/03/29 04:14:48;;;;;;;17.92;4.88;;;9.80;99.90;;;;;;5172788;27;20077;-70
2021/03/29 04:17:14;;;;;;;16.67;4.75;;;9.80;99.90;;;;;;5172934;27;20054;-70
2021/03/29 04:19:39;;;;;;;14.95;5.05;;;9.70;99.90;;;;;;5172941;27;20058;-71
2021/03/29 04:22:05;;;;;;;14.77;4.43;;;9.80;99.90;;;;;;5172883;27;20030;-70
2021/03/29 04:24:31;;;;;;;14.05;4.90;;;9.80;99.90;;;;;;5172102;27;20050;-70
2021/03/29 04:26:57;;;;;;;16.70;4.45;;;9.80;99.90;;;;;;5172483;27;20106;-70
2021/03/29 04:29:26;;;;;;;21.42;5.45;;;9.70;99.90;;;;;;5172492;27;20454;-70
2021/03/29 04:31:52;;;;;;;16.98;4.40;;;9.80;99.90;;;;;;5172162;27;20026;-70
2021/03/29 04:34:18;;;;;;;17.60;5.18;;;9.80;99.90;;;;;;5172343;27;20087;-70
2021/03/29 04:36:43;;;;;;;14.60;4.53;;;9.80;99.90;;;;;;5158993;27;20054;-70
2021/03/29 04:39:09;;;;;;;20.67;5.00;;;9.70;99.90;;;;;;5158626;27;20041;-69
2021/03/29 04:41:34;;;;;;;13.13;4.32;;;9.60;99.90;;;;;;5158653;27;20022;-70
2021/03/29 04:44:00;;;;;;;14.13;4.88;;;9.60;99.90;;;;;;5158563;27;20023;-69
2021/03/29 04:46:25;;;;;;;15.43;5.43;;;9.70;99.90;;;;;;5158582;27;20023;-70
2021/03/29 04:48:51;;;;;;;11.20;4.78;;;9.70;99.90;;;;;;5158581;27;20022;-70
2021/03/29 04:51:16;;;;;;;14.27;5.13;;;9.70;99.90;;;;;;5158479;27;20443;-68
2021/03/29 04:53:42;;;;;;;20.27;5.43;;;9.70;99.90;;;;;;5158457;27;20030;-70
2021/03/29 04:56:08;;;;;;;13.48;4.45;;;9.60;99.90;;;;;;5156582;27;20031;-68
2021/03/29 04:58:33;;;;;;;17.25;5.35;;;9.60;99.90;;;;;;5156906;27;20068;-69
2021/03/29 05:00:59;;;;;;;17.83;4.90;;;9.60;99.90;;;;;;5158335;27;20452;-69
2021/03/29 05:03:24;;;;;;;15.15;5.30;;;9.60;99.90;;;;;;5158186;27;20417;-69
2021/03/29 05:05:50;;;;;;;12.75;4.75;;;9.70;99.90;;;;;;5158194;27;20038;-69
2021/03/29 05:08:15;;;;;;;13.60;5.05;;;9.70;99.90;;;;;;5157877;27;20026;-70
2021/03/29 05:10:41;;;;;;;15.65;5.63;;;9.60;99.90;;;;;;5157548;27;20014;-70
2021/03/29 05:13:08;;;;;;;15.52;5.00;;;9.60;99.90;;;;;;5158064;27;20523;-69
2021/03/29 05:15:33;;;;;;;15.73;5.28;;;9.60;99.90;;;;;;5158031;27;20042;-70
2021/03/29 05:17:59;;;;;;;17.77;5.10;;;9.70;99.90;;;;;;5156147;27;20456;-70
2021/03/29 05:20:25;;;;;;;14.00;4.93;;;9.70;99.90;;;;;;5157361;27;20021;-68
2021/03/29 05:22:51;;;;;;;26.80;5.00;;;9.60;99.90;;;;;;5157838;27;20026;-68
2021/03/29 05:25:16;;;;;;;14.55;5.13;;;9.60;99.90;;;;;;5157075;27;20046;-70
2021/03/29 05:27:42;;;;;;;15.75;4.80;;;9.60;99.90;;;;;;5156504;27;20026;-70
2021/03/29 05:30:08;;;;;;;18.20;4.78;;;9.70;99.90;;;;;;5157732;27;20505;-70
2021/03/29 05:32:34;;;;;;;18.92;4.40;;;9.70;99.90;;;;;;5157688;27;20027;-69
2021/03/29 05:35:01;;;;;;;10.32;3.95;;;9.70;99.90;;;;;;5157201;27;20023;-69
2021/03/29 05:37:27;;;;;;;15.68;5.20;;;9.80;99.90;;;;;;5157480;27;20451;-69
2021/03/29 05:39:55;;;;;;;20.17;4.97;;;9.70;99.90;;;;;;5157264;27;20022;-69
2021/03/29 05:42:22;;;;;;;22.98;5.78;;;9.80;99.90;;;;;;5157451;27;20019;-69
2021/03/29 05:44:50;;;;;;;16.58;4.75;;;9.80;99.90;;;;;;5157339;27;20451;-70
2021/03/29 05:47:16;;;;;;;12.35;4.18;;;9.80;99.90;;;;;;5156042;27;20023;-69
2021/03/29 05:49:42;;;;;;;17.70;5.18;;;9.80;99.90;;;;;;5156160;27;20023;-70
2021/03/29 05:52:08;;;;;;;12.15;4.80;;;9.90;99.90;;;;;;5157278;27;20024;-70
2021/03/29 05:54:34;;;;;;;16.27;4.55;;;10.10;99.90;;;;;;5157177;27;20023;-70
2021/03/29 05:56:59;;;;;;;12.90;4.18;;;10.00;99.90;;;;;;5155651;27;20046;-69
2021/03/29 05:59:41;;;;;;;19.13;4.78;;;10.10;99.90;;;;;;5157048;27;20067;-69
2021/03/29 06:02:09;;;;;;;20.95;5.60;;;10.20;99.90;;;;;;5156967;27;20059;-69
2021/03/29 06:04:46;;;;;;;17.73;4.70;;;10.30;99.90;;;;;;5156870;27;20022;-69
2021/03/29 06:07:14;;;;;;;14.73;4.78;;;10.60;99.90;;;;;;5156953;27;20015;-69
2021/03/29 06:09:41;;;;;;;18.73;5.00;;;10.80;99.90;;;;;;5153959;27;20019;-69
2021/03/29 06:12:08;;;;;;;15.45;4.63;;;11.30;99.90;;;;;;5154473;27;20046;-69
2021/03/29 06:14:34;;;;;;;16.75;5.28;;;11.30;99.90;;;;;;5153029;27;20048;-69
2021/03/29 06:19:51;;;;;;;15.50;5.28;;;11.70;99.90;;;;;;5110809;27;20390;-69
2021/03/29 06:22:27;;;;;;;17.10;4.90;;;11.70;99.90;;;;;;5093549;28;20388;-70
2021/03/29 06:27:56;;;;;;;15.55;4.57;;;11.50;99.90;;;;;;5111125;27;20415;-70
2021/03/29 06:30:36;;;;;;;12.50;4.18;;;11.10;99.90;;;;;;5104658;28;20028;-70
2021/03/29 06:33:17;;;;;;;17.80;5.22;;;11.00;99.90;;;;;;5110572;28;20534;-70
2021/03/29 06:41:03;;;;;;;18.70;6.30;;;11.00;99.90;;;;;;5103362;27;20872;-70
2021/03/29 06:43:38;;;;;;;13.95;4.85;;;11.20;99.90;;;;;;5090334;28;20020;-70
2021/03/29 06:46:06;;;;;;;17.13;5.53;;;11.50;99.90;;;;;;5100951;28;20042;-71
2021/03/29 06:48:34;;;;;;;12.15;4.75;;;12.00;99.90;;;;;;5090172;28;20024;-70
2021/03/29 06:51:12;;;;;;;20.90;5.07;;;12.90;99.90;;;;;;5090298;28;20429;-70
2021/03/29 06:53:40;;;;;;;16.80;4.88;;;13.00;99.90;;;;;;5088638;28;20060;-70
2021/03/29 06:56:29;;;;;;;12.85;4.22;;;13.20;99.90;;;;;;5089243;28;20020;-70
2021/03/29 06:59:10;;;;;;;20.08;4.80;;;13.50;99.90;;;;;;5089392;28;20060;-70
2021/03/29 07:01:45;;;;;;;9.85;4.15;;;13.80;99.90;;;;;;5087765;28;20016;-71
2021/03/29 07:04:10;;;;;;;16.05;4.75;;;13.80;99.90;;;;;;5088412;28;20017;-70
2021/03/29 07:06:37;;;;;;;17.25;4.88;;;13.60;99.90;;;;;;5092205;28;20466;-71
2021/03/29 07:09:05;;;;;;;15.40;4.57;;;13.60;99.90;;;;;;5089270;28;20028;-70
2021/03/29 07:11:31;;;;;;;14.80;4.22;;;13.80;99.90;;;;;;5089654;28;20167;-70
2021/03/29 07:13:58;;;;;;;15.48;4.70;;;13.60;99.90;;;;;;5089747;28;20032;-70
2021/03/29 07:16:26;;;;;;;14.15;5.03;;;13.40;99.90;;;;;;5089874;28;20053;-69
2021/03/29 07:18:56;;;;;;;13.70;4.25;;;13.20;99.90;;;;;;5089979;28;20028;-72
2021/03/29 07:21:22;;;;;;;12.77;3.97;;;13.20;99.90;;;;;;5088348;28;20020;-72
2021/03/29 07:23:47;;;;;;;11.77;4.07;;;13.30;99.90;;;;;;5088554;28;20046;-70
2021/03/29 07:26:28;;;;;;;14.30;4.38;;;13.50;99.90;;;;;;5100525;28;20028;-71
2021/03/29 07:28:55;;;;;;;15.15;4.70;;;14.00;99.90;;;;;;5067645;28;20024;-71
2021/03/29 07:31:42;;;;;;;14.82;4.57;;;14.40;99.90;;;;;;5089424;28;20028;-71
2021/03/29 07:34:08;;;;;;;9.35;3.92;;;14.60;99.90;;;;;;5089301;28;20055;-72
2021/03/29 07:36:40;;;;;;;14.48;4.43;;;14.90;99.90;;;;;;5087603;28;20115;-70
2021/03/29 07:39:05;;;;;;;11.20;4.03;;;15.50;99.90;;;;;;5089315;28;20040;-70
2021/03/29 07:41:31;;;;;;;14.63;4.32;;;16.00;99.90;;;;;;5087998;28;20098;-71
2021/03/29 07:44:18;;;;;;;18.92;4.40;;;16.60;99.90;;;;;;5071278;28;20078;-70
2021/03/29 07:46:47;;;;;;;9.25;3.90;;;16.60;99.90;;;;;;5088942;28;20567;-71
2021/03/29 07:49:48;;;;;;;13.15;3.78;;;17.10;99.90;;;;;;5089461;28;20366;-73
2021/03/29 07:52:34;;;;;;;12.90;4.30;;;17.80;99.90;;;;;;5076405;28;20024;-73
2021/03/29 07:55:04;;;;;;;13.30;3.80;;;18.20;98.70;;;;;;5073192;28;20510;-73
2021/03/29 08:05:55;;;;;;;9.65;3.50;;;18.50;97.20;;;;;;5108546;27;20360;-69
2021/03/29 08:11:18;;;;;;;13.23;3.90;;;18.00;98.00;;;;;;5089960;28;20423;-71
2021/03/29 08:13:53;;;;;;;11.32;3.85;;;18.90;94.20;;;;;;5090313;28;20044;-69
2021/03/29 08:16:29;;;;;;;14.85;3.97;;;19.00;94.50;;;;;;5080013;28;20082;-71
2021/03/29 08:19:19;;;;;;;8.80;3.35;;;19.50;92.80;;;;;;5070155;28;20107;-71
2021/03/29 08:21:52;;;;;;;14.52;3.65;;;19.80;90.70;;;;;;5050145;28;20043;-71
2021/03/29 08:24:38;;;;;;;;;;;19.60;90.70;;;;;;5052090;28;20021;-71
2021/03/29 08:27:06;;;;;;;10.70;3.05;;;19.40;90.00;;;;;;5090330;28;20349;-71
2021/03/29 08:29:34;;;;;;;11.82;3.45;;;20.00;88.20;;;;;;5088315;28;20078;-70
2021/03/29 08:32:29;;;;;;;10.63;3.03;;;20.50;81.20;;;;;;5071276;28;20115;-71
2021/03/29 08:35:01;;;;;;;9.68;3.05;;;20.80;82.00;;;;;;5069578;28;20530;-72
2021/03/29 08:37:36;;;;;;;6.85;2.97;;;20.10;80.50;;;;;;5069813;28;20024;-71
2021/03/29 08:40:24;;;;;;;10.52;2.95;;;19.70;81.30;;;;;;5080243;28;20020;-72
2021/03/29 08:42:52;;;;;;;8.82;2.95;;;19.90;84.10;;;;;;5082588;28;20474;-69
2021/03/29 08:45:20;;;;;;;12.68;3.30;;;20.00;81.00;;;;;;5069847;28;20032;-69
2021/03/29 08:47:48;;;;;;;7.57;2.75;;;20.10;80.80;;;;;;5074864;28;20020;-69
2021/03/29 08:50:17;;;;;;;12.35;2.85;;;20.20;76.60;;;;;;5076615;28;20501;-70
2021/03/29 08:52:47;;;;;;;12.05;3.45;;;20.00;75.30;;;;;;5069514;28;20025;-70
2021/03/29 08:55:19;;;;;;;7.10;2.90;;;20.10;74.00;;;;;;5070388;28;20500;-68
2021/03/29 08:57:46;;;;;;;8.30;2.72;;;19.90;75.50;;;;;;5086607;28;20047;-72
2021/03/29 09:00:16;;;;;;;7.78;2.92;;;20.50;76.10;;;;;;5069290;28;20103;-71
2021/03/29 09:02:42;;;;;;;9.38;2.97;;;20.00;70.70;;;;;;5080099;28;20055;-72
2021/03/29 09:05:10;;;;;;;7.65;2.92;;;20.00;67.70;;;;;;5069468;28;20078;-71
2021/03/29 09:07:40;;;;;;;10.27;2.42;;;20.40;65.40;;;;;;5068691;28;20385;-72
2021/03/29 09:10:31;;;;;;;6.40;2.50;;;20.60;64.40;;;;;;5053830;28;20037;-72
2021/03/29 09:13:00;;;;;;;6.68;2.47;;;20.80;63.00;;;;;;5062804;28;20098;-71
2021/03/29 09:15:28;;;;;;;11.25;3.03;;;20.10;60.10;;;;;;5069127;28;20028;-71
2021/03/29 09:17:57;;;;;;;7.38;2.30;;;20.30;59.10;;;;;;5069866;28;20078;-71
2021/03/29 09:20:26;;;;;;;11.25;2.65;;;20.40;58.20;;;;;;5080188;28;20109;-71
2021/03/29 09:22:52;;;;;;;8.05;2.72;;;20.80;58.50;;;;;;5062568;28;20021;-71
2021/03/29 09:25:24;;;;;;;10.35;2.72;;;21.20;55.90;;;;;;5055849;28;20391;-71
2021/03/29 09:28:23;;;;;;;7.32;2.75;;;20.60;56.20;;;;;;5058735;28;20032;-71
2021/03/29 09:30:52;;;;;;;8.48;2.78;;;20.60;56.00;;;;;;5044311;28;20044;-72
2021/03/29 09:33:19;;;;;;;8.80;2.90;;;20.20;55.80;;;;;;5039121;28;20419;-73
2021/03/29 09:35:46;;;;;;;9.52;2.88;;;20.60;57.90;;;;;;5061522;28;20029;-71
2021/03/29 09:38:13;;;;;;;9.32;2.30;;;20.90;55.30;;;;;;5049627;28;20053;-72
2021/03/29 09:40:39;;;;;;;6.00;2.40;;;21.80;53.00;;;;;;5047044;28;20075;-73
2021/03/29 09:43:06;;;;;;;7.80;2.40;;;21.40;50.90;;;;;;5066413;28;20102;-73
2021/03/29 09:45:33;;;;;;;6.72;2.40;;;21.30;51.00;;;;;;5055055;28;20028;-72
2021/03/29 09:48:09;;;;;;;8.75;2.60;;;21.00;51.10;;;;;;5068387;28;20032;-72
2021/03/29 09:50:38;;;;;;;8.15;2.70;;;21.10;51.50;;;;;;5069750;28;20449;-73
2021/03/29 09:53:23;;;;;;;10.88;2.80;;;21.60;51.20;;;;;;5046543;28;20021;-73
2021/03/29 09:55:51;;;;;;;7.95;2.65;;;21.50;49.70;;;;;;5054691;28;20120;-74
2021/03/29 09:58:22;;;;;;;14.18;2.70;;;21.80;50.30;;;;;;5072287;28;20021;-74
2021/03/29 10:00:49;;;;;;;9.18;2.67;;;21.60;48.60;;;;;;5073743;28;20062;-74
2021/03/29 10:03:17;;;;;;;8.40;3.05;;;22.10;47.50;;;;;;5071041;28;20032;-73
2021/03/29 10:05:43;;;;;;;8.15;2.78;;;22.20;46.90;;;;;;5053515;28;20151;-74
2021/03/29 10:08:09;;;;;;;10.77;3.00;;;21.60;48.40;;;;;;5065487;28;20033;-73
2021/03/29 10:10:34;;;;;;;9.02;2.63;;;21.90;47.00;;;;;;5056100;28;20041;-73
2021/03/29 10:13:11;;;;;;;8.05;2.97;;;21.90;44.90;;;;;;5073275;28;20024;-72
2021/03/29 10:15:38;;;;;;;9.82;2.67;;;22.00;45.70;;;;;;5055808;28;20509;-72
2021/03/29 10:18:13;;;;;;;7.35;2.53;;;21.60;45.00;;;;;;5074956;28;20031;-73
2021/03/29 10:20:42;;;;;;;9.50;2.60;;;21.30;44.60;;;;;;5056907;28;20021;-73
2021/03/29 10:23:29;;;;;;;7.43;2.75;;;21.60;47.70;;;;;;5070150;28;20029;-73
2021/03/29 10:26:18;;;;;;;9.75;3.30;;;22.00;45.40;;;;;;5068243;28;20025;-73
2021/03/29 10:28:52;;;;;;;11.60;3.00;;;22.00;45.00;;;;;;5054554;28;20509;-74
2021/03/29 10:31:18;;;;;;;12.25;3.50;;;21.80;43.90;;;;;;5069599;28;20017;-74
2021/03/29 10:33:44;;;;;;;7.88;2.72;;;21.90;43.60;;;;;;5053072;28;20435;-74
2021/03/29 10:36:18;;;;;;;9.70;3.17;;;21.70;42.80;;;;;;5071097;28;20112;-73
2021/03/29 10:38:44;;;;;;;10.57;3.05;;;21.10;45.40;;;;;;5052829;28;20029;-74
2021/03/29 10:41:10;;;;;;;7.90;3.00;;;21.30;44.50;;;;;;5055327;28;20535;-73
2021/03/29 10:43:35;;;;;;;8.40;3.45;;;21.40;45.10;;;;;;5054339;28;20128;-73
2021/03/29 10:46:01;;;;;;;8.88;3.17;;;21.30;43.40;;;;;;5069728;28;20513;-73
2021/03/29 10:48:26;;;;;;;7.32;3.17;;;21.30;44.30;;;;;;5066108;28;20504;-74
2021/03/29 10:50:52;;;;;;;12.23;3.08;;;22.00;42.30;;;;;;5054459;28;20533;-74
2021/03/29 10:53:18;;;;;;;12.30;3.03;;;22.20;43.00;;;;;;5053805;28;20021;-74
2021/03/29 10:55:43;;;;;;;7.70;3.00;;;22.30;40.70;;;;;;5052046;28;20032;-74
2021/03/29 10:58:09;;;;;;;9.05;3.10;;;22.10;40.50;;;;;;5052084;28;20033;-74
2021/03/29 11:00:34;;;;;;;8.85;2.40;;;22.10;41.40;;;;;;5084430;28;20028;-71
2021/03/29 11:03:00;;;;;;;12.95;3.33;;;22.00;42.00;;;;;;5068697;28;20037;-72
2021/03/29 11:05:26;;;;;;;10.38;2.85;;;21.70;40.90;;;;;;5059200;28;20028;-72
2021/03/29 11:07:51;;;;;;;9.57;3.33;;;21.70;41.30;;;;;;5053730;28;20036;-72
2021/03/29 11:10:17;;;;;;;7.03;2.80;;;21.70;41.90;;;;;;5058492;28;20049;-72
2021/03/29 11:12:42;;;;;;;8.80;3.33;;;21.80;41.40;;;;;;5047995;28;20043;-73
2021/03/29 11:15:08;;;;;;;15.38;3.33;;;22.00;40.90;;;;;;5061807;28;20030;-72
2021/03/29 11:17:36;;;;;;;8.70;3.00;;;22.40;40.40;;;;;;5035668;28;20462;-72
2021/03/29 11:20:02;;;;;;;10.18;3.10;;;22.00;40.30;;;;;;5060971;28;20035;-73
2021/03/29 11:22:28;;;;;;;9.05;3.15;;;22.20;41.80;;;;;;5054443;28;20036;-73
2021/03/29 11:24:54;;;;;;;10.52;2.53;;;21.60;41.50;;;;;;5057947;28;20099;-72
2021/03/29 11:27:19;;;;;;;12.45;3.10;;;21.30;42.30;;;;;;5045639;28;20041;-73
2021/03/29 11:29:45;;;;;;;7.25;2.78;;;21.10;42.90;;;;;;5033373;28;20379;-72
2021/03/29 11:32:10;;;;;;;10.88;3.33;;;21.20;43.50;;;;;;5060603;28;20051;-74
2021/03/29 11:34:36;;;;;;;11.52;2.78;;;20.90;43.20;;;;;;5073280;28;20028;-72
2021/03/29 11:37:02;;;;;;;9.07;2.70;;;20.80;42.90;;;;;;5071462;28;20021;-73
2021/03/29 11:39:27;;;;;;;11.05;2.97;;;20.80;43.80;;;;;;5053413;28;20044;-72
2021/03/29 11:41:53;;;;;;;9.52;2.97;;;20.70;44.10;;;;;;5053405;28;20397;-72
2021/03/29 11:44:19;;;;;;;7.43;2.83;;;20.80;44.20;;;;;;5054957;28;20470;-72
2021/03/29 11:46:44;;;;;;;6.88;2.60;;;20.90;44.30;;;;;;5052182;28;20048;-72
2021/03/29 11:49:11;;;;;;;6.88;2.95;;;20.90;43.00;;;;;;5052880;28;20399;-72
2021/03/29 11:51:36;;;;;;;12.07;3.08;;;21.10;43.10;;;;;;5033158;28;20022;-73
2021/03/29 11:54:02;;;;;;;7.43;3.00;;;20.90;43.90;;;;;;5048191;28;20036;-72
2021/03/29 11:56:28;;;;;;;5.55;2.67;;;20.90;43.50;;;;;;5053591;28;20052;-72
2021/03/29 11:58:53;;;;;;;9.45;3.15;;;20.60;42.90;;;;;;5064308;28;20029;-72
2021/03/29 12:02:05;;;;;;;6.35;2.72;;;20.90;44.10;;;;;;5058088;28;20064;-73
2021/03/29 12:04:19;;;;;;;10.00;2.55;;;20.90;42.70;;;;;;5064044;28;20481;-72
2021/03/29 12:06:52;;;;;;;7.28;3.20;;;20.80;43.80;;;;;;5062987;28;20529;-72
2021/03/29 12:09:31;;;;;;;8.95;3.15;;;20.60;43.30;;;;;;5053627;28;20037;-74
2021/03/29 12:11:59;;;;;;;8.13;2.47;;;20.80;42.60;;;;;;5067172;28;20025;-72
2021/03/29 12:14:30;;;;;;;7.25;2.92;;;20.60;43.20;;;;;;5053760;28;20028;-73
2021/03/29 12:16:56;;;;;;;9.50;2.97;;;20.60;42.60;;;;;;5055174;28;20463;-73
2021/03/29 12:19:22;;;;;;;7.90;2.55;;;20.60;43.60;;;;;;5058223;28;20111;-73
2021/03/29 12:21:52;;;;;;;7.90;2.67;;;20.60;42.60;;;;;;5072217;28;20032;-71
2021/03/29 12:24:21;;;;;;;8.63;2.67;;;20.70;42.20;;;;;;5060537;28;20025;-73
2021/03/29 12:26:48;;;;;;;8.68;3.00;;;20.80;42.00;;;;;;5061227;28;20020;-72
2021/03/29 12:29:17;;;;;;;8.05;2.78;;;20.90;42.20;;;;;;5072690;28;20031;-71
2021/03/29 12:31:45;;;;;;;7.30;2.72;;;20.80;41.80;;;;;;5070948;28;20040;-72
2021/03/29 12:34:12;;;;;;;9.32;2.25;;;20.70;41.50;;;;;;5072813;28;20021;-72
2021/03/29 12:36:47;;;;;;;6.30;2.55;;;20.80;41.60;;;;;;5065745;28;20024;-73
2021/03/29 12:39:18;;;;;;;7.35;2.00;;;20.90;39.80;;;;;;5062074;28;20117;-72
2021/03/29 12:41:49;;;;;;;4.13;2.22;;;20.90;39.00;;;;;;5070933;28;20384;-71
2021/03/29 12:44:17;;;;;;;6.90;2.35;;;21.20;38.90;;;;;;5072753;28;20393;-72
2021/03/29 12:46:47;;;;;;;5.95;2.38;;;21.20;37.70;;;;;;5053955;28;20481;-72
2021/03/29 12:49:14;;;;;;;7.65;2.30;;;21.30;37.50;;;;;;5051325;28;20025;-71
2021/03/29 12:51:41;;;;;;;6.97;2.15;;;21.30;36.90;;;;;;5053390;28;20036;-71
2021/03/29 12:54:11;;;;;;;4.30;1.90;;;21.40;37.50;;;;;;5052363;28;20474;-72
2021/03/29 12:56:41;;;;;;;8.70;2.25;;;21.70;36.40;;;;;;5069060;28;20028;-73
2021/03/29 12:59:06;;;;;;;9.40;2.28;;;21.60;35.40;;;;;;5075012;28;20025;-73
2021/03/29 13:01:33;;;;;;;5.20;2.40;;;21.50;35.20;;;;;;5074376;28;20393;-72
2021/03/29 13:04:01;;;;;;;10.05;2.70;;;21.50;34.90;;;;;;5074514;28;20062;-72
2021/03/29 13:06:33;;;;;;;5.50;2.60;;;21.40;34.60;;;;;;5047801;28;20359;-72
2021/03/29 13:09:02;;;;;;;6.57;2.53;;;21.30;34.60;;;;;;5044743;28;20068;-70
2021/03/29 13:11:33;;;;;;;8.90;2.42;;;21.40;33.30;;;;;;5075543;28;20255;-71
2021/03/29 13:14:01;;;;;;;5.78;2.40;;;21.40;34.40;;;;;;5068829;28;20013;-71
2021/03/29 13:16:27;;;;;;;8.00;2.60;;;21.40;33.80;;;;;;5054953;28;20493;-72